createdAt,value
2022-10-11T00:00:15.296Z,14.05
2022-10-11T00:03:19.604Z,12.23
2022-10-11T00:06:23.524Z,14.60
2022-10-11T00:09:27.494Z,15.82
2022-10-11T00:12:31.718Z,14.55
2022-10-11T00:15:35.702Z,13.90
2022-10-11T00:18:40.050Z,10.90
2022-10-11T00:21:44.185Z,14.77
2022-10-11T00:24:48.491Z,13.32
2022-10-11T00:27:52.458Z,11.70
2022-10-11T00:30:56.686Z,15.55
2022-10-11T00:34:00.835Z,12.75
2022-10-11T00:37:04.816Z,13.95
2022-10-11T00:40:14.475Z,10.82
2022-10-11T00:43:22.126Z,12.90
2022-10-11T00:46:28.740Z,13.30
2022-10-11T00:49:41.017Z,10.45
2022-10-11T00:52:50.086Z,19.17
2022-10-11T00:56:02.912Z,13.80
2022-10-11T00:59:20.762Z,12.15
2022-10-11T01:02:25.313Z,13.85
2022-10-11T01:05:30.678Z,18.13
2022-10-11T01:08:34.957Z,13.35
2022-10-11T01:11:41.921Z,15.18
2022-10-11T01:15:05.595Z,13.82
2022-10-11T01:18:44.423Z,12.98
2022-10-11T01:21:55.959Z,12.50
2022-10-11T01:25:15.109Z,12.40
2022-10-11T01:28:41.269Z,12.07
2022-10-11T01:32:02.555Z,18.98
2022-10-11T01:35:14.427Z,15.07
2022-10-11T01:38:43.625Z,12.85
2022-10-11T01:41:51.604Z,14.82
2022-10-11T01:44:58.174Z,12.15
2022-10-11T01:48:10.950Z,11.60
2022-10-11T01:51:15.320Z,11.83
2022-10-11T01:55:04.375Z,13.30
2022-10-11T01:58:43.467Z,12.45
2022-10-11T02:01:56.088Z,13.60
2022-10-11T02:05:12.423Z,12.95
2022-10-11T02:08:35.241Z,17.23
2022-10-11T02:11:39.179Z,13.68
2022-10-11T02:14:47.238Z,11.48
2022-10-11T02:17:56.000Z,10.82
2022-10-11T02:21:03.708Z,16.75
2022-10-11T02:24:20.717Z,16.75
2022-10-11T02:27:30.090Z,11.23
2022-10-11T02:30:35.740Z,16.75
2022-10-11T02:33:49.550Z,15.13
2022-10-11T02:36:59.719Z,21.02
2022-10-11T02:40:16.251Z,14.88
2022-10-11T02:43:29.588Z,16.35
2022-10-11T02:46:34.649Z,18.17
2022-10-11T02:49:38.606Z,23.60
2022-10-11T02:52:42.596Z,15.05
2022-10-11T02:55:47.975Z,16.10
2022-10-11T02:58:51.967Z,15.43
2022-10-11T03:01:55.965Z,12.55
2022-10-11T03:05:00.292Z,15.07
2022-10-11T03:08:04.590Z,22.02
2022-10-11T03:11:08.445Z,18.15
2022-10-11T03:14:12.252Z,13.38
2022-10-11T03:17:35.636Z,17.15
2022-10-11T03:20:39.887Z,12.57
2022-10-11T03:23:43.902Z,17.42
2022-10-11T03:26:47.831Z,15.98
2022-10-11T03:29:51.871Z,16.17
2022-10-11T03:32:58.507Z,17.02
2022-10-11T03:36:03.150Z,17.17
2022-10-11T03:39:07.502Z,18.70
2022-10-11T03:42:12.097Z,19.77
2022-10-11T03:45:16.273Z,23.50
2022-10-11T03:48:20.582Z,17.63
2022-10-11T03:51:24.679Z,20.02
2022-10-11T03:54:28.797Z,17.30
2022-10-11T03:57:32.691Z,16.27
2022-10-11T04:00:37.306Z,18.50
2022-10-11T04:03:41.065Z,18.92
2022-10-11T04:06:45.310Z,20.98
2022-10-11T04:09:49.528Z,17.52
2022-10-11T04:12:53.761Z,20.50
2022-10-11T04:15:57.849Z,21.42
2022-10-11T04:19:01.483Z,15.82
2022-10-11T04:22:05.706Z,18.13
2022-10-11T04:25:10.539Z,22.85
2022-10-11T04:28:14.975Z,20.10
2022-10-11T04:31:19.031Z,24.27
2022-10-11T04:34:23.044Z,21.45
2022-10-11T04:37:27.426Z,15.73
2022-10-11T04:40:31.741Z,16.50
2022-10-11T04:43:36.414Z,23.27
2022-10-11T04:46:40.255Z,27.25
2022-10-11T04:49:44.144Z,16.80
2022-10-11T04:52:48.097Z,24.67
2022-10-11T04:56:01.280Z,22.95
2022-10-11T05:02:09.651Z,18.48
2022-10-11T05:05:17.354Z,27.98
2022-10-11T05:08:23.189Z,33.45
2022-10-11T05:11:27.121Z,21.73
2022-10-11T05:14:31.004Z,18.95
2022-10-11T05:17:35.509Z,18.13
2022-10-11T05:20:39.454Z,23.55
2022-10-11T05:23:43.597Z,26.92
2022-10-11T05:26:47.804Z,30.17
2022-10-11T05:29:51.613Z,17.65
2022-10-11T05:32:55.625Z,26.77
2022-10-11T05:36:00.552Z,21.55
2022-10-11T05:39:04.574Z,21.13
2022-10-11T05:42:10.002Z,22.38
2022-10-11T05:45:13.928Z,21.42
2022-10-11T05:48:18.233Z,24.95
2022-10-11T05:51:22.203Z,26.92
2022-10-11T05:54:30.007Z,23.55
2022-10-11T05:57:34.046Z,17.88
2022-10-11T06:00:38.519Z,23.95
2022-10-11T06:03:42.546Z,27.60
2022-10-11T06:06:46.244Z,24.23
2022-10-11T06:09:51.109Z,28.40
2022-10-11T06:12:55.040Z,25.80
2022-10-11T06:15:58.810Z,27.50
2022-10-11T06:19:02.850Z,25.08
2022-10-11T06:22:07.085Z,30.95
2022-10-11T06:25:11.310Z,26.20
2022-10-11T06:28:15.275Z,28.17
2022-10-11T06:31:19.544Z,23.08
2022-10-11T06:34:23.604Z,22.17
2022-10-11T06:37:29.419Z,23.40
2022-10-11T06:40:33.599Z,22.30
2022-10-11T06:43:37.960Z,20.25
2022-10-11T06:46:41.976Z,24.33
2022-10-11T06:49:46.147Z,21.20
2022-10-11T06:52:50.067Z,25.08
2022-10-11T06:55:54.016Z,18.73
2022-10-11T06:58:59.007Z,30.05
2022-10-11T07:02:02.854Z,20.13
2022-10-11T07:05:08.424Z,25.92
2022-10-11T07:08:12.650Z,24.67
2022-10-11T07:11:21.834Z,21.75
2022-10-11T07:14:26.183Z,26.42
2022-10-11T07:17:30.046Z,21.58
2022-10-11T07:20:34.003Z,19.73
2022-10-11T07:23:38.472Z,18.83
2022-10-11T07:26:42.509Z,24.33
2022-10-11T07:29:46.813Z,23.13
2022-10-11T07:32:50.886Z,38.33
2022-10-11T07:35:57.045Z,25.67
2022-10-11T07:39:02.704Z,21.83
2022-10-11T07:42:06.844Z,25.05
2022-10-11T07:45:10.760Z,23.90
2022-10-11T07:48:15.334Z,18.17
2022-10-11T07:51:21.726Z,23.00
2022-10-11T07:54:25.747Z,33.85
2022-10-11T07:57:29.648Z,19.70
2022-10-11T08:00:34.340Z,19.35
2022-10-11T08:03:38.812Z,20.20
2022-10-11T08:06:42.565Z,20.70
2022-10-11T08:09:46.273Z,16.75
2022-10-11T08:12:50.147Z,26.33
2022-10-11T08:15:54.547Z,25.05
2022-10-11T08:18:58.717Z,19.08
2022-10-11T08:22:02.927Z,22.02
2022-10-11T08:25:07.243Z,15.52
2022-10-11T08:28:16.843Z,20.92
2022-10-11T08:31:21.324Z,25.85
2022-10-11T08:34:25.481Z,16.92
2022-10-11T08:37:29.322Z,20.48
2022-10-11T08:40:35.409Z,24.48
2022-10-11T08:43:55.705Z,19.25
2022-10-11T08:47:12.679Z,23.55
2022-10-11T08:50:19.935Z,17.33
2022-10-11T08:53:28.167Z,27.95
2022-10-11T08:56:36.082Z,17.88
2022-10-11T08:59:55.914Z,19.88
2022-10-11T09:03:23.369Z,20.58
2022-10-11T09:07:15.895Z,25.40
2022-10-11T09:10:45.443Z,14.80
2022-10-11T09:14:06.984Z,18.15
2022-10-11T09:17:17.206Z,17.08
2022-10-11T09:20:47.555Z,19.00
2022-10-11T09:24:12.885Z,15.68
2022-10-11T09:27:50.262Z,20.27
2022-10-11T09:30:55.446Z,22.55
2022-10-11T09:34:10.285Z,22.48
2022-10-11T09:37:42.039Z,20.35
2022-10-11T09:41:14.695Z,18.67
2022-10-11T09:44:28.148Z,23.13
2022-10-11T09:47:33.049Z,23.92
2022-10-11T09:50:39.258Z,21.83
2022-10-11T09:53:56.367Z,18.85
2022-10-11T09:57:00.042Z,22.77
2022-10-11T10:00:21.753Z,17.40
2022-10-11T10:03:38.077Z,16.08
2022-10-11T10:06:41.951Z,16.48
2022-10-11T10:09:46.487Z,16.10
2022-10-11T10:12:55.403Z,27.20
2022-10-11T10:15:59.627Z,15.02
2022-10-11T10:19:06.989Z,15.20
2022-10-11T10:22:37.314Z,17.38
2022-10-11T10:25:43.712Z,12.02
2022-10-11T10:29:01.868Z,15.88
2022-10-11T10:32:23.072Z,17.17
2022-10-11T10:35:31.548Z,12.43
2022-10-11T10:38:39.852Z,17.08
2022-10-11T10:41:44.121Z,12.80
2022-10-11T10:44:53.706Z,12.10
2022-10-11T10:48:14.336Z,17.70
2022-10-11T10:51:41.625Z,14.23
2022-10-11T10:54:56.370Z,17.00
2022-10-11T10:58:21.636Z,21.13
2022-10-11T11:01:33.706Z,18.83
2022-10-11T11:04:37.769Z,19.58
2022-10-11T11:07:54.489Z,12.65
2022-10-11T11:11:19.134Z,19.05
2022-10-11T11:14:50.713Z,18.75
2022-10-11T11:18:25.872Z,18.05
2022-10-11T11:21:45.563Z,20.48
2022-10-11T11:25:22.342Z,18.15
2022-10-11T11:28:40.184Z,14.20
2022-10-11T11:31:57.967Z,10.60
2022-10-11T11:35:07.422Z,16.95
2022-10-11T11:38:14.722Z,15.48
2022-10-11T11:41:25.873Z,15.80
2022-10-11T11:44:34.650Z,21.35
2022-10-11T11:47:44.010Z,19.42
2022-10-11T11:51:08.793Z,18.45
2022-10-11T11:54:32.199Z,11.13
2022-10-11T11:57:56.749Z,13.98
2022-10-11T12:01:22.553Z,9.07
2022-10-11T12:04:33.061Z,17.10
2022-10-11T12:07:59.970Z,13.73
2022-10-11T12:11:05.330Z,12.70
2022-10-11T12:14:22.200Z,14.80
2022-10-11T12:17:26.158Z,13.02
2022-10-11T12:20:33.373Z,11.77
2022-10-11T12:23:40.792Z,11.10
2022-10-11T12:26:47.122Z,14.10
2022-10-11T12:29:51.579Z,11.43
2022-10-11T12:33:13.338Z,12.00
2022-10-11T12:36:35.915Z,13.32
2022-10-11T12:39:49.086Z,11.32
2022-10-11T12:46:32.942Z,14.70
2022-10-11T12:49:48.074Z,11.10
2022-10-11T12:53:03.731Z,11.52
2022-10-11T12:56:20.312Z,15.13
2022-10-11T12:59:24.534Z,12.85
2022-10-11T13:02:40.892Z,13.05
2022-10-11T13:05:49.720Z,11.27
2022-10-11T13:09:07.202Z,13.98
2022-10-11T13:12:23.272Z,13.88
2022-10-11T13:15:28.498Z,12.15
2022-10-11T13:18:32.619Z,12.15
2022-10-11T13:21:37.373Z,12.13
2022-10-11T13:24:43.671Z,11.48
2022-10-11T13:27:48.644Z,12.75
2022-10-11T13:30:56.030Z,12.90
2022-10-11T13:33:59.849Z,10.65
2022-10-11T13:37:04.543Z,14.95
2022-10-11T13:40:17.338Z,13.48
2022-10-11T13:43:28.767Z,13.35
2022-10-11T13:46:33.898Z,14.23
2022-10-11T13:49:38.810Z,11.23
2022-10-11T13:53:16.733Z,9.65
2022-10-11T13:56:20.552Z,13.45
2022-10-11T13:59:28.054Z,12.02
2022-10-11T14:02:32.634Z,10.48
2022-10-11T14:05:39.689Z,12.25
2022-10-11T14:08:49.753Z,11.27
2022-10-11T14:11:55.096Z,13.68
2022-10-11T14:15:00.691Z,11.13
2022-10-11T14:18:36.869Z,11.00
2022-10-11T14:21:45.673Z,14.15
2022-10-11T14:24:49.815Z,10.38
2022-10-11T14:27:54.664Z,14.52
2022-10-11T14:30:58.661Z,10.38
2022-10-11T14:34:03.955Z,13.13
2022-10-11T14:37:09.509Z,13.77
2022-10-11T14:40:17.304Z,16.45
2022-10-11T14:43:21.351Z,9.52
2022-10-11T14:46:27.028Z,14.02
2022-10-11T14:49:33.624Z,16.27
2022-10-11T14:52:37.592Z,12.13
2022-10-11T14:55:42.084Z,16.30
2022-10-11T14:58:46.589Z,15.80
2022-10-11T15:01:53.780Z,12.10
2022-10-11T15:04:58.083Z,14.00
2022-10-11T15:08:03.958Z,12.93
2022-10-11T15:11:09.436Z,12.23
2022-10-11T15:14:13.913Z,13.07
2022-10-11T15:17:17.695Z,17.30
2022-10-11T15:20:26.797Z,16.58
2022-10-11T15:23:31.222Z,11.25
2022-10-11T15:26:35.558Z,11.80
2022-10-11T15:29:39.628Z,14.15
2022-10-11T15:32:43.487Z,15.10
2022-10-11T15:35:47.731Z,13.25
2022-10-11T15:38:51.902Z,11.80
2022-10-11T15:41:57.534Z,14.45
2022-10-11T15:45:01.694Z,15.70
2022-10-11T15:48:06.273Z,12.88
2022-10-11T15:51:10.442Z,9.23
2022-10-11T15:54:14.731Z,10.40
2022-10-11T15:57:18.673Z,14.35
2022-10-11T16:00:22.602Z,19.20
2022-10-11T16:03:29.104Z,14.30
2022-10-11T16:06:33.270Z,10.50
2022-10-11T16:09:37.234Z,13.07
2022-10-11T16:12:41.270Z,14.02
2022-10-11T16:15:46.373Z,16.40
2022-10-11T16:18:50.771Z,13.60
2022-10-11T16:21:54.640Z,18.42
2022-10-11T16:24:58.731Z,14.10
2022-10-11T16:28:03.964Z,16.17
2022-10-11T16:31:14.738Z,11.70
2022-10-11T16:34:19.060Z,11.63
2022-10-11T16:37:23.138Z,15.45
2022-10-11T16:40:28.187Z,11.35
2022-10-11T16:43:32.148Z,13.77
2022-10-11T16:46:36.135Z,18.20
2022-10-11T16:49:40.152Z,13.90
2022-10-11T16:52:44.208Z,9.65
2022-10-11T16:55:48.098Z,16.13
2022-10-11T16:58:53.347Z,14.25
2022-10-11T17:01:57.948Z,17.02
2022-10-11T17:05:02.430Z,19.92
2022-10-11T17:08:06.922Z,16.52
2022-10-11T17:11:11.422Z,16.33
2022-10-11T17:14:15.854Z,14.70
2022-10-11T17:17:21.010Z,18.33
2022-10-11T17:20:25.223Z,15.77
2022-10-11T17:23:29.222Z,13.15
2022-10-11T17:26:34.507Z,20.73
2022-10-11T17:29:38.826Z,11.93
2022-10-11T17:32:43.027Z,17.85
2022-10-11T17:35:48.300Z,15.60
2022-10-11T17:38:52.405Z,14.27
2022-10-11T17:41:57.017Z,18.92
2022-10-11T17:45:01.769Z,14.93
2022-10-11T17:48:05.761Z,15.95
2022-10-11T17:51:13.583Z,18.05
2022-10-11T17:54:17.560Z,25.25
2022-10-11T17:57:21.693Z,17.63
2022-10-11T18:00:25.721Z,18.05
2022-10-11T18:03:29.661Z,16.75
2022-10-11T18:06:39.001Z,13.80
2022-10-11T18:09:43.252Z,18.45
2022-10-11T18:12:47.502Z,19.48
2022-10-11T18:15:53.719Z,22.02
2022-10-11T18:18:58.774Z,17.38
2022-10-11T18:22:06.771Z,21.20
2022-10-11T18:25:11.292Z,21.80
2022-10-11T18:28:17.489Z,20.95
2022-10-11T18:31:25.165Z,28.92
2022-10-11T18:34:28.972Z,22.15
2022-10-11T18:37:32.872Z,21.98
2022-10-11T18:40:42.343Z,27.35
2022-10-11T18:43:55.431Z,21.20
2022-10-11T18:46:59.810Z,26.27
2022-10-11T18:50:03.975Z,24.17
2022-10-11T18:53:08.192Z,19.63
2022-10-11T18:56:16.732Z,19.30
2022-10-11T18:59:20.883Z,17.25
2022-10-11T19:02:24.891Z,17.60
2022-10-11T19:05:28.721Z,29.75
2022-10-11T19:08:32.608Z,18.75
2022-10-11T19:11:37.820Z,25.23
2022-10-11T19:14:41.907Z,19.80
2022-10-11T19:17:45.962Z,21.63
2022-10-11T19:20:49.760Z,18.95
2022-10-11T19:23:55.484Z,21.55
2022-10-11T19:27:02.638Z,22.83
2022-10-11T19:30:07.581Z,20.15
2022-10-11T19:33:11.599Z,20.02
2022-10-11T19:36:15.807Z,28.83
2022-10-11T19:39:21.233Z,25.90
2022-10-11T19:42:24.926Z,22.13
2022-10-11T19:45:28.692Z,26.10
2022-10-11T19:48:32.825Z,23.75
2022-10-11T19:51:38.133Z,24.25
2022-10-11T19:54:42.263Z,22.77
2022-10-11T19:57:46.162Z,30.02
2022-10-11T20:01:01.761Z,26.02
2022-10-11T20:04:08.147Z,23.67
2022-10-11T20:07:12.245Z,30.77
2022-10-11T20:10:16.132Z,20.13
2022-10-11T20:13:20.939Z,25.92
2022-10-11T20:16:27.221Z,24.95
2022-10-11T20:19:31.877Z,23.95
2022-10-11T20:22:36.002Z,22.20
2022-10-11T20:25:39.791Z,23.55
2022-10-11T20:28:44.640Z,31.33
2022-10-11T20:31:48.574Z,21.27
2022-10-11T20:34:52.350Z,20.75
2022-10-11T20:37:56.209Z,29.70
2022-10-11T20:41:04.882Z,25.02
2022-10-11T20:44:09.727Z,25.08
2022-10-11T20:47:13.992Z,33.15
2022-10-11T20:50:22.833Z,30.50
2022-10-11T20:53:28.526Z,27.45
2022-10-11T20:56:33.777Z,25.83
2022-10-11T20:59:37.942Z,26.10
2022-10-11T21:02:41.981Z,29.70
2022-10-11T21:05:46.403Z,30.90
2022-10-11T21:08:50.485Z,29.50
2022-10-11T21:11:54.506Z,27.02
2022-10-11T21:14:58.673Z,27.25
2022-10-11T21:18:02.433Z,29.27
2022-10-11T21:21:14.246Z,29.65
2022-10-11T21:24:18.231Z,31.15
2022-10-11T21:27:22.103Z,34.67
2022-10-11T21:30:26.449Z,25.83
2022-10-11T21:33:30.337Z,30.67
2022-10-11T21:36:34.724Z,32.25
2022-10-11T21:39:38.360Z,29.13
2022-10-11T21:42:42.212Z,27.25
2022-10-11T21:45:46.657Z,28.23
2022-10-11T21:48:51.291Z,26.73
2022-10-11T21:51:55.342Z,22.30
2022-10-11T21:54:59.475Z,23.85
2022-10-11T21:58:03.390Z,28.33
2022-10-11T22:01:07.516Z,28.45
2022-10-11T22:04:12.022Z,26.05
2022-10-11T22:07:15.762Z,26.13
2022-10-11T22:10:19.726Z,28.40
2022-10-11T22:13:24.920Z,23.88
2022-10-11T22:16:29.159Z,25.48
2022-10-11T22:19:33.027Z,27.25
2022-10-11T22:22:37.437Z,24.10
2022-10-11T22:25:42.079Z,20.60
2022-10-11T22:28:46.848Z,28.30
2022-10-11T22:31:51.470Z,27.23
2022-10-11T22:34:55.922Z,24.92
2022-10-11T22:37:59.537Z,27.60
2022-10-11T22:41:03.632Z,25.77
2022-10-11T22:44:07.692Z,28.38
2022-10-11T22:47:12.079Z,29.73
2022-10-11T22:50:15.928Z,28.98
2022-10-11T22:53:20.461Z,32.63
2022-10-11T22:56:24.412Z,26.42
2022-10-11T22:59:28.175Z,28.73
2022-10-11T23:02:32.044Z,30.63
2022-10-11T23:05:36.317Z,25.40
2022-10-11T23:08:40.452Z,30.83
2022-10-11T23:11:44.434Z,29.35
2022-10-11T23:14:48.428Z,21.08
2022-10-11T23:17:52.194Z,19.80
2022-10-11T23:20:59.773Z,21.10
2022-10-11T23:24:03.883Z,19.70
2022-10-11T23:27:08.212Z,23.90
2022-10-11T23:30:13.226Z,24.48
2022-10-11T23:33:17.552Z,26.25
2022-10-11T23:36:24.191Z,25.95
2022-10-11T23:39:28.446Z,21.15
2022-10-11T23:42:32.337Z,22.17
2022-10-11T23:45:36.714Z,22.48
2022-10-11T23:48:40.880Z,26.42
2022-10-11T23:51:45.225Z,18.73
2022-10-11T23:54:48.802Z,21.73
2022-10-11T23:57:52.675Z,25.08
